createdAt,value
2018-01-12T00:00:14.410Z,8.00
2018-01-12T00:01:14.418Z,0.00
2018-01-12T00:02:14.964Z,0.00
2018-01-12T00:03:14.500Z,0.00
2018-01-12T00:04:14.433Z,0.00
2018-01-12T00:05:14.461Z,0.00
2018-01-12T00:06:14.490Z,0.00
2018-01-12T00:07:14.540Z,0.00
2018-01-12T00:08:14.901Z,0.00
2018-01-12T00:09:14.582Z,0.00
2018-01-12T00:10:14.618Z,0.00
2018-01-12T00:11:14.645Z,0.00
2018-01-12T00:12:14.677Z,0.00
2018-01-12T00:13:14.708Z,0.00
2018-01-12T00:14:15.086Z,0.00
2018-01-12T00:15:14.767Z,0.00
2018-01-12T00:16:14.798Z,0.00
2018-01-12T00:17:14.837Z,0.00
2018-01-12T00:18:14.859Z,0.00
2018-01-12T00:19:14.889Z,0.00
2018-01-12T00:20:15.275Z,0.00
2018-01-12T00:21:15.609Z,0.00
2018-01-12T00:22:14.986Z,0.00
2018-01-12T00:23:15.012Z,0.00
2018-01-12T00:24:15.040Z,0.00
2018-01-12T00:25:15.085Z,0.00
2018-01-12T00:26:15.457Z,0.00
2018-01-12T00:27:15.135Z,0.00
2018-01-12T00:28:15.164Z,0.00
2018-01-12T00:29:15.194Z,0.00
2018-01-12T00:30:15.234Z,0.00
2018-01-12T00:31:15.258Z,0.00
2018-01-12T00:32:15.289Z,0.00
2018-01-12T00:33:15.668Z,0.00
2018-01-12T00:34:15.360Z,0.00
2018-01-12T00:35:15.439Z,0.00
2018-01-12T00:36:15.510Z,0.00
2018-01-12T00:37:15.441Z,0.00
2018-01-12T00:38:15.476Z,0.00
2018-01-12T00:39:15.502Z,0.00
2018-01-12T00:40:15.879Z,0.00
2018-01-12T00:41:15.561Z,0.00
2018-01-12T00:42:15.595Z,0.00
2018-01-12T00:43:15.632Z,0.00
2018-01-12T00:44:15.661Z,0.00
2018-01-12T00:45:15.692Z,0.00
2018-01-12T00:46:15.765Z,0.00
2018-01-12T00:48:16.128Z,0.00
2018-01-12T00:49:15.805Z,0.00
2018-01-12T00:51:15.918Z,0.00
2018-01-12T00:52:15.903Z,0.00
2018-01-12T00:53:15.928Z,0.00
2018-01-12T00:54:15.965Z,0.00
2018-01-12T00:55:16.341Z,0.00
2018-01-12T00:56:16.159Z,0.00
2018-01-12T00:57:16.049Z,0.00
2018-01-12T00:58:16.091Z,0.00
2018-01-12T00:59:16.110Z,0.00
2018-01-12T01:00:16.161Z,0.00
2018-01-12T01:01:16.174Z,0.00
2018-01-12T01:02:16.553Z,0.00
2018-01-12T01:03:16.234Z,0.00
2018-01-12T01:04:16.274Z,0.00
2018-01-12T01:05:16.300Z,0.00
2018-01-12T01:06:16.327Z,0.00
2018-01-12T01:07:16.364Z,0.00
2018-01-12T01:08:16.436Z,0.00
2018-01-12T01:09:16.773Z,0.00
2018-01-12T01:10:16.450Z,0.00
2018-01-12T01:11:16.487Z,0.00
2018-01-12T01:12:16.509Z,0.00
2018-01-12T01:13:16.539Z,0.00
2018-01-12T01:15:16.600Z,0.00
2018-01-12T01:16:16.983Z,0.00
2018-01-12T01:17:16.668Z,0.00
2018-01-12T01:18:16.696Z,0.00
2018-01-12T01:19:16.723Z,0.00
2018-01-12T01:20:16.751Z,0.00
2018-01-12T01:22:16.813Z,0.00
2018-01-12T01:23:17.195Z,0.00
2018-01-12T01:24:16.875Z,0.00
2018-01-12T01:25:16.924Z,0.00
2018-01-12T01:26:16.944Z,0.00
2018-01-12T01:27:16.966Z,0.00
2018-01-12T01:28:17.049Z,0.00
2018-01-12T01:29:17.039Z,0.00
2018-01-12T01:30:17.409Z,0.00
2018-01-12T01:31:17.090Z,0.00
2018-01-12T01:32:17.117Z,0.00
2018-01-12T01:33:17.163Z,0.00
2018-01-12T01:34:17.198Z,0.00
2018-01-12T01:35:17.224Z,0.00
2018-01-12T01:36:17.241Z,0.00
2018-01-12T01:37:17.630Z,0.00
2018-01-12T01:38:17.308Z,0.00
2018-01-12T01:39:17.334Z,0.00
2018-01-12T01:40:17.365Z,0.00
2018-01-12T01:41:17.397Z,0.00
2018-01-12T01:42:17.424Z,0.00
2018-01-12T01:43:17.477Z,0.00
2018-01-12T01:44:17.786Z,0.00
2018-01-12T01:45:17.520Z,0.00
2018-01-12T01:46:17.571Z,0.00
2018-01-12T01:47:17.580Z,0.00
2018-01-12T01:48:17.611Z,0.00
2018-01-12T01:49:17.638Z,0.00
2018-01-12T01:50:17.671Z,0.00
2018-01-12T01:51:18.056Z,0.00
2018-01-12T01:52:17.756Z,0.00
2018-01-12T01:53:17.770Z,0.00
2018-01-12T01:54:17.794Z,0.00
2018-01-12T01:55:17.828Z,0.00
2018-01-12T01:56:17.853Z,0.00
2018-01-12T01:57:19.125Z,0.00
2018-01-12T01:58:18.273Z,0.00
2018-01-12T01:59:17.945Z,0.00
2018-01-12T02:00:17.990Z,0.00
2018-01-12T02:01:18.053Z,0.00
2018-01-12T02:03:18.072Z,0.00
2018-01-12T02:04:18.100Z,0.00
2018-01-12T02:05:18.489Z,0.00
2018-01-12T02:06:18.227Z,0.00
2018-01-12T02:07:18.202Z,0.00
2018-01-12T02:08:18.257Z,0.00
2018-01-12T02:09:18.251Z,0.00
2018-01-12T02:10:18.288Z,0.00
2018-01-12T02:11:18.312Z,0.00
2018-01-12T02:12:19.843Z,0.00
2018-01-12T02:13:19.163Z,0.00
2018-01-12T02:14:19.341Z,0.00
2018-01-12T02:15:18.430Z,0.00
2018-01-12T02:16:18.478Z,0.00
2018-01-12T02:17:18.501Z,0.00
2018-01-12T02:18:18.523Z,0.00
2018-01-12T02:19:18.906Z,0.00
2018-01-12T02:20:18.588Z,0.00
2018-01-12T02:21:18.661Z,0.00
2018-01-12T02:22:18.644Z,0.00
2018-01-12T02:23:18.675Z,0.00
2018-01-12T02:24:19.450Z,0.00
2018-01-12T02:25:19.119Z,0.00
2018-01-12T02:26:18.782Z,0.00
2018-01-12T02:27:18.796Z,0.00
2018-01-12T02:28:18.845Z,0.00
2018-01-12T02:29:18.863Z,0.00
2018-01-12T02:30:19.161Z,0.00
2018-01-12T02:31:19.270Z,0.00
2018-01-12T02:32:18.996Z,0.00
2018-01-12T02:33:18.981Z,0.00
2018-01-12T02:34:19.061Z,0.00
2018-01-12T02:35:19.040Z,0.00
2018-01-12T02:36:19.070Z,0.00
2018-01-12T02:37:19.458Z,0.00
2018-01-12T02:38:19.134Z,0.00
2018-01-12T02:39:19.167Z,0.00
2018-01-12T02:40:20.074Z,0.00
2018-01-12T02:41:19.232Z,0.00
2018-01-12T02:42:19.257Z,0.00
2018-01-12T02:43:19.288Z,0.00
2018-01-12T02:44:19.664Z,0.00
2018-01-12T02:45:19.352Z,0.00
2018-01-12T02:46:19.378Z,0.00
2018-01-12T02:47:19.412Z,0.00
2018-01-12T02:48:19.437Z,0.00
2018-01-12T02:49:19.468Z,0.00
2018-01-12T02:50:19.499Z,0.00
2018-01-12T02:51:19.880Z,0.00
2018-01-12T02:52:19.561Z,0.00
2018-01-12T02:53:19.591Z,0.00
2018-01-12T02:54:19.631Z,0.00
2018-01-12T02:55:19.655Z,0.00
2018-01-12T02:56:20.616Z,0.00
2018-01-12T02:57:19.721Z,0.00
2018-01-12T02:58:20.101Z,0.00
2018-01-12T02:59:19.778Z,0.00
2018-01-12T03:00:19.863Z,0.00
2018-01-12T03:01:19.835Z,0.00
2018-01-12T03:03:19.903Z,0.00
2018-01-12T03:04:19.974Z,0.00
2018-01-12T03:05:20.306Z,0.00
2018-01-12T03:06:20.003Z,0.00
2018-01-12T03:07:20.025Z,0.00
2018-01-12T03:08:20.056Z,0.00
2018-01-12T03:09:20.087Z,0.00
2018-01-12T03:10:20.109Z,0.00
2018-01-12T03:11:20.138Z,0.00
2018-01-12T03:12:20.519Z,0.00
2018-01-12T03:14:20.230Z,0.00
2018-01-12T03:15:20.263Z,0.00
2018-01-12T03:16:20.290Z,0.00
2018-01-12T03:17:20.368Z,0.00
2018-01-12T03:18:20.355Z,0.00
2018-01-12T03:19:20.752Z,0.00
2018-01-12T03:20:20.425Z,0.00
2018-01-12T03:21:20.446Z,0.00
2018-01-12T03:22:20.528Z,0.00
2018-01-12T03:23:20.505Z,0.00
2018-01-12T03:24:20.537Z,0.00
2018-01-12T03:25:20.566Z,0.00
2018-01-12T03:26:20.947Z,0.00
2018-01-12T03:27:20.628Z,0.00
2018-01-12T03:28:20.747Z,0.00
2018-01-12T03:29:20.739Z,0.00
2018-01-12T03:30:20.724Z,0.00
2018-01-12T03:31:20.750Z,0.00
2018-01-12T03:32:20.781Z,0.00
2018-01-12T03:33:21.166Z,0.00
2018-01-12T03:34:20.844Z,0.00
2018-01-12T03:35:20.881Z,0.00
2018-01-12T03:36:20.909Z,0.00
2018-01-12T03:37:20.942Z,0.00
2018-01-12T03:38:20.964Z,0.00
2018-01-12T03:39:21.000Z,0.00
2018-01-12T03:40:21.376Z,0.00
2018-01-12T03:41:21.053Z,0.00
2018-01-12T03:42:21.084Z,0.00
2018-01-12T03:43:21.119Z,0.00
2018-01-12T03:44:21.155Z,0.00
2018-01-12T03:45:21.173Z,0.00
2018-01-12T03:46:21.207Z,0.00
2018-01-12T03:47:21.590Z,0.00
2018-01-12T03:48:21.266Z,0.00
2018-01-12T03:49:21.302Z,0.00
2018-01-12T03:50:21.328Z,0.00
2018-01-12T03:51:21.375Z,0.00
2018-01-12T03:52:21.389Z,0.00
2018-01-12T03:53:21.549Z,0.00
2018-01-12T03:54:21.873Z,0.00
2018-01-12T03:55:21.481Z,0.00
2018-01-12T03:56:21.969Z,0.00
2018-01-12T03:57:21.598Z,0.00
2018-01-12T03:58:21.569Z,0.00
2018-01-12T03:59:21.602Z,0.00
2018-01-12T04:00:21.682Z,0.00
2018-01-12T04:01:21.961Z,0.00
2018-01-12T04:02:21.692Z,0.00
2018-01-12T04:03:21.722Z,0.00
2018-01-12T04:04:21.750Z,0.00
2018-01-12T04:05:21.784Z,0.00
2018-01-12T04:06:21.827Z,0.00
2018-01-12T04:07:21.845Z,0.00
2018-01-12T04:08:22.272Z,0.00
2018-01-12T04:09:21.928Z,0.00
2018-01-12T04:10:22.240Z,0.00
2018-01-12T04:11:21.965Z,0.00
2018-01-12T04:12:21.994Z,0.00
2018-01-12T04:13:22.034Z,0.00
2018-01-12T04:14:22.408Z,0.00
2018-01-12T04:15:22.118Z,0.00
2018-01-12T04:16:22.115Z,0.00
2018-01-12T04:17:22.150Z,0.00
2018-01-12T04:18:22.181Z,0.00
2018-01-12T04:19:22.209Z,0.00
2018-01-12T04:20:22.594Z,0.00
2018-01-12T04:21:22.269Z,0.00
2018-01-12T04:22:22.308Z,0.00
2018-01-12T04:23:22.369Z,0.00
2018-01-12T04:24:22.369Z,0.00
2018-01-12T04:25:22.399Z,0.00
2018-01-12T04:26:22.770Z,0.00
2018-01-12T04:27:22.458Z,0.00
2018-01-12T04:28:22.489Z,0.00
2018-01-12T04:29:22.510Z,0.00
2018-01-12T04:30:22.576Z,0.00
2018-01-12T04:31:22.575Z,0.00
2018-01-12T04:32:22.601Z,0.00
2018-01-12T04:33:22.989Z,0.00
2018-01-12T04:34:22.665Z,0.00
2018-01-12T04:35:22.708Z,0.00
2018-01-12T04:36:22.734Z,0.00
2018-01-12T04:37:22.752Z,0.00
2018-01-12T04:38:22.784Z,0.00
2018-01-12T04:39:22.818Z,0.00
2018-01-12T04:40:23.151Z,0.00
2018-01-12T04:41:22.877Z,0.00
2018-01-12T04:42:22.910Z,0.00
2018-01-12T04:43:22.945Z,0.00
2018-01-12T04:44:22.970Z,0.00
2018-01-12T04:45:23.000Z,0.00
2018-01-12T04:46:23.037Z,0.00
2018-01-12T04:47:23.436Z,0.00
2018-01-12T04:48:23.169Z,0.00
2018-01-12T04:49:23.132Z,0.00
2018-01-12T04:50:23.308Z,0.00
2018-01-12T04:51:23.186Z,0.00
2018-01-12T04:52:23.259Z,0.00
2018-01-12T04:53:23.241Z,0.00
2018-01-12T04:54:23.673Z,0.00
2018-01-12T04:55:23.302Z,0.00
2018-01-12T04:56:23.367Z,0.00
2018-01-12T04:57:23.361Z,0.00
2018-01-12T04:58:23.393Z,0.00
2018-01-12T04:59:23.544Z,0.00
2018-01-12T05:00:23.454Z,0.00
2018-01-12T05:01:23.835Z,0.00
2018-01-12T05:02:23.513Z,0.00
2018-01-12T05:03:23.544Z,0.00
2018-01-12T05:04:23.574Z,0.00
2018-01-12T05:05:23.614Z,0.00
2018-01-12T05:06:23.636Z,0.00
2018-01-12T05:07:23.730Z,0.00
2018-01-12T05:08:23.698Z,0.00
2018-01-12T05:09:23.741Z,0.00
2018-01-12T05:10:23.757Z,0.00
2018-01-12T05:11:23.817Z,0.00
2018-01-12T05:12:23.818Z,0.00
2018-01-12T05:13:23.853Z,0.00
2018-01-12T05:14:24.232Z,0.00
2018-01-12T05:15:24.071Z,0.00
2018-01-12T05:16:23.936Z,0.00
2018-01-12T05:17:23.978Z,0.00
2018-01-12T05:18:24.010Z,0.00
2018-01-12T05:19:24.030Z,0.00
2018-01-12T05:20:24.063Z,0.00
2018-01-12T05:21:24.445Z,0.00
2018-01-12T05:22:24.124Z,0.00
2018-01-12T05:23:24.157Z,0.00
2018-01-12T05:24:24.181Z,0.00
2018-01-12T05:25:24.313Z,0.00
2018-01-12T05:26:24.249Z,0.00
2018-01-12T05:27:24.278Z,0.00
2018-01-12T05:28:24.665Z,0.00
2018-01-12T05:29:24.335Z,0.00
2018-01-12T05:30:24.365Z,0.00
2018-01-12T05:32:24.429Z,0.00
2018-01-12T05:33:24.458Z,0.00
2018-01-12T05:34:24.487Z,0.00
2018-01-12T05:35:24.870Z,0.00
2018-01-12T05:36:24.567Z,0.00
2018-01-12T05:37:24.581Z,0.00
2018-01-12T05:38:24.616Z,0.00
2018-01-12T05:39:24.654Z,0.00
2018-01-12T05:40:24.673Z,0.00
2018-01-12T05:41:24.999Z,0.00
2018-01-12T05:42:24.738Z,0.00
2018-01-12T05:43:24.760Z,0.00
2018-01-12T05:44:24.805Z,0.00
2018-01-12T05:45:24.821Z,0.00
2018-01-12T05:46:24.858Z,0.00
2018-01-12T05:47:25.237Z,0.00
2018-01-12T05:48:24.930Z,0.00
2018-01-12T05:50:24.973Z,0.00
2018-01-12T05:51:25.007Z,0.00
2018-01-12T05:52:25.037Z,0.00
2018-01-12T05:53:25.426Z,0.00
2018-01-12T05:54:25.095Z,0.00
2018-01-12T05:55:25.130Z,0.00
2018-01-12T05:56:25.156Z,0.00
2018-01-12T05:57:25.189Z,0.00
2018-01-12T05:58:25.221Z,0.00
2018-01-12T05:59:25.273Z,0.00
2018-01-12T06:00:25.655Z,0.00
2018-01-12T06:01:25.352Z,0.00
2018-01-12T06:02:25.361Z,0.00
2018-01-12T06:04:25.406Z,0.00
2018-01-12T06:05:25.464Z,0.00
2018-01-12T06:06:25.469Z,0.00
2018-01-12T06:07:25.842Z,0.00
2018-01-12T06:08:25.522Z,0.00
2018-01-12T06:09:25.550Z,0.00
2018-01-12T06:10:25.613Z,0.00
2018-01-12T06:11:25.619Z,0.00
2018-01-12T06:12:25.692Z,0.00
2018-01-12T06:13:25.726Z,0.00
2018-01-12T06:14:26.068Z,0.00
2018-01-12T06:15:25.732Z,0.00
2018-01-12T06:17:25.798Z,0.00
2018-01-12T06:18:25.826Z,0.00
2018-01-12T06:19:25.858Z,0.00
2018-01-12T06:20:25.989Z,0.00
2018-01-12T06:22:26.307Z,0.00
2018-01-12T06:23:25.978Z,0.00
2018-01-12T06:24:26.015Z,0.00
2018-01-12T06:25:26.047Z,0.00
2018-01-12T06:26:26.073Z,0.00
2018-01-12T06:27:26.109Z,0.00
2018-01-12T06:28:26.132Z,0.00
2018-01-12T06:29:26.510Z,0.00
2018-01-12T06:30:26.198Z,0.00
2018-01-12T06:31:26.227Z,0.00
2018-01-12T06:32:26.302Z,0.00
2018-01-12T06:33:26.286Z,0.00
2018-01-12T06:34:26.333Z,0.00
2018-01-12T06:35:27.247Z,0.00
2018-01-12T06:36:26.740Z,0.00
2018-01-12T06:37:26.454Z,0.00
2018-01-12T06:38:26.451Z,0.00
2018-01-12T06:39:26.464Z,0.00
2018-01-12T06:40:26.498Z,0.00
2018-01-12T06:41:26.524Z,0.00
2018-01-12T06:42:26.556Z,0.00
2018-01-12T06:43:26.889Z,0.00
2018-01-12T06:44:26.637Z,0.00
2018-01-12T06:45:26.649Z,0.00
2018-01-12T06:46:26.682Z,0.00
2018-01-12T06:47:26.714Z,0.00
2018-01-12T06:48:26.736Z,0.00
2018-01-12T06:49:26.766Z,0.00
2018-01-12T06:50:27.154Z,0.00
2018-01-12T06:51:26.834Z,0.00
2018-01-12T06:52:26.858Z,0.00
2018-01-12T06:53:26.903Z,0.00
2018-01-12T06:54:26.921Z,0.00
2018-01-12T06:55:26.950Z,0.00
2018-01-12T06:56:26.990Z,0.00
2018-01-12T06:57:27.334Z,0.00
2018-01-12T06:58:27.046Z,0.00
2018-01-12T06:59:27.118Z,0.00
2018-01-12T07:00:27.102Z,0.00
2018-01-12T07:01:27.138Z,0.00
2018-01-12T07:02:27.163Z,0.00
2018-01-12T07:03:27.195Z,0.00
2018-01-12T07:04:27.584Z,0.00
2018-01-12T07:05:27.259Z,4.00
2018-01-12T07:06:27.286Z,4.00
2018-01-12T07:07:27.316Z,4.00
2018-01-12T07:08:27.406Z,4.00
2018-01-12T07:09:27.390Z,4.00
2018-01-12T07:10:27.463Z,0.00
2018-01-12T07:11:27.797Z,4.00
2018-01-12T07:12:27.479Z,4.00
2018-01-12T07:13:27.509Z,4.00
2018-01-12T07:14:27.539Z,8.00
2018-01-12T07:15:27.560Z,4.00
2018-01-12T07:16:27.591Z,4.00
2018-01-12T07:17:27.624Z,8.00
2018-01-12T07:18:27.999Z,8.00
2018-01-12T07:19:27.693Z,8.00
2018-01-12T07:20:27.714Z,8.00
2018-01-12T07:21:27.742Z,8.00
2018-01-12T07:22:27.778Z,12.00
2018-01-12T07:23:27.804Z,8.00
2018-01-12T07:24:27.843Z,12.00
2018-01-12T07:26:28.249Z,12.00
2018-01-12T07:27:27.934Z,16.00
2018-01-12T07:28:27.954Z,16.00
2018-01-12T07:29:27.987Z,20.00
2018-01-12T07:30:28.021Z,20.00
2018-01-12T07:31:28.049Z,16.00
2018-01-12T07:32:28.086Z,16.00
2018-01-12T07:33:28.473Z,20.00
2018-01-12T07:34:28.191Z,24.00
2018-01-12T07:35:28.171Z,24.00
2018-01-12T07:36:28.208Z,24.00
2018-01-12T07:39:28.642Z,32.00
2018-01-12T07:40:28.326Z,36.00
2018-01-12T07:41:28.351Z,40.00
2018-01-12T07:42:28.384Z,44.00
2018-01-12T07:43:28.540Z,48.00
2018-01-12T07:44:28.464Z,48.00
2018-01-12T07:45:29.057Z,56.00
2018-01-12T07:46:28.866Z,60.00
2018-01-12T07:47:28.590Z,60.00
2018-01-12T07:48:28.567Z,68.00
2018-01-12T07:49:28.603Z,68.00
2018-01-12T07:50:28.674Z,68.00
2018-01-12T07:51:28.661Z,72.00
2018-01-12T07:52:28.695Z,76.00
2018-01-12T07:53:29.079Z,80.00
2018-01-12T07:54:28.746Z,80.00
2018-01-12T07:55:28.783Z,88.00
2018-01-12T07:56:28.809Z,88.00
2018-01-12T07:57:28.849Z,92.00
2018-01-12T07:58:28.871Z,96.00
2018-01-12T07:59:29.250Z,100.00
2018-01-12T08:00:28.928Z,108.00
2018-01-12T08:01:28.970Z,112.00
2018-01-12T08:02:29.009Z,116.00
2018-01-12T08:03:29.026Z,120.00
2018-01-12T08:04:29.056Z,128.00
2018-01-12T08:05:29.436Z,132.00
2018-01-12T08:07:29.142Z,140.00
2018-01-12T08:08:29.172Z,156.00
2018-01-12T08:09:29.203Z,172.00
2018-01-12T08:10:29.242Z,172.00
2018-01-12T08:11:29.616Z,168.00
2018-01-12T08:12:29.308Z,180.00
2018-01-12T08:13:29.328Z,188.00
2018-01-12T08:15:29.425Z,212.00
2018-01-12T08:16:29.417Z,220.00
2018-01-12T08:17:29.446Z,224.00
2018-01-12T08:19:29.815Z,228.00
2018-01-12T08:20:29.540Z,236.00
2018-01-12T08:21:29.571Z,252.00
2018-01-12T08:22:29.608Z,268.00
2018-01-12T08:23:29.632Z,276.00
2018-01-12T08:25:30.042Z,280.00
2018-01-12T08:26:29.735Z,292.00
2018-01-12T08:27:29.758Z,292.00
2018-01-12T08:28:29.784Z,304.00
2018-01-12T08:29:29.813Z,300.00
2018-01-12T08:30:29.843Z,308.00
2018-01-12T08:31:29.881Z,324.00
2018-01-12T08:32:30.272Z,344.00
2018-01-12T08:33:29.937Z,356.00
2018-01-12T08:34:29.964Z,356.00
2018-01-12T08:35:29.997Z,356.00
2018-01-12T08:36:30.033Z,360.00
2018-01-12T08:37:30.059Z,364.00
2018-01-12T08:38:30.089Z,348.00
2018-01-12T08:39:30.474Z,336.00
2018-01-12T08:40:30.147Z,344.00
2018-01-12T08:41:30.245Z,356.00
2018-01-12T08:42:30.212Z,364.00
2018-01-12T08:46:30.705Z,384.00
2018-01-12T08:47:30.372Z,360.00
2018-01-12T08:48:30.400Z,360.00
2018-01-12T08:49:30.438Z,380.00
2018-01-12T08:50:30.457Z,392.00
2018-01-12T08:51:30.487Z,380.00
2018-01-12T08:52:30.569Z,376.00
2018-01-12T08:53:30.933Z,392.00
2018-01-12T08:54:30.583Z,404.00
2018-01-12T08:55:30.607Z,404.00
2018-01-12T08:56:30.707Z,404.00
2018-01-12T08:57:30.676Z,420.00
2018-01-12T08:58:30.706Z,440.00
2018-01-12T08:59:30.991Z,448.00
2018-01-12T09:00:31.107Z,468.00
2018-01-12T09:01:30.791Z,500.00
2018-01-12T09:02:30.823Z,496.00
2018-01-12T09:03:30.922Z,480.00
2018-01-12T09:04:30.891Z,448.00
2018-01-12T09:06:31.302Z,440.00
2018-01-12T09:07:30.995Z,452.00
2018-01-12T09:08:31.006Z,492.00
2018-01-12T09:09:31.036Z,552.00
2018-01-12T09:10:31.106Z,584.00
2018-01-12T09:11:31.094Z,588.00
2018-01-12T09:12:31.128Z,628.00
2018-01-12T09:13:31.605Z,664.00
2018-01-12T09:14:31.242Z,672.00
2018-01-12T09:15:31.232Z,692.00
2018-01-12T09:16:31.304Z,708.00
2018-01-12T09:17:31.279Z,720.00
2018-01-12T09:18:31.318Z,732.00
2018-01-12T09:19:31.745Z,724.00
2018-01-12T09:20:31.430Z,680.00
2018-01-12T09:21:31.409Z,636.00
2018-01-12T09:22:31.437Z,640.00
2018-01-12T09:23:31.493Z,644.00
2018-01-12T09:24:31.499Z,648.00
2018-01-12T09:26:31.923Z,624.00
2018-01-12T09:27:31.590Z,672.00
2018-01-12T09:28:31.701Z,708.00
2018-01-12T09:29:31.653Z,708.00
2018-01-12T09:30:31.737Z,720.00
2018-01-12T09:31:31.719Z,712.00
2018-01-12T09:32:32.089Z,676.00
2018-01-12T09:33:31.786Z,672.00
2018-01-12T09:34:31.851Z,688.00
2018-01-12T09:35:31.826Z,752.00
2018-01-12T09:36:31.858Z,820.00
2018-01-12T09:37:31.910Z,816.00
2018-01-12T09:38:32.271Z,768.00
2018-01-12T09:39:31.952Z,732.00
2018-01-12T09:40:32.014Z,748.00
2018-01-12T09:41:32.179Z,768.00
2018-01-12T09:42:32.045Z,792.00
2018-01-12T09:43:32.078Z,784.00
2018-01-12T09:44:32.105Z,776.00
2018-01-12T09:45:32.485Z,804.00
2018-01-12T09:46:32.222Z,860.00
2018-01-12T09:47:32.201Z,932.00
2018-01-12T09:48:32.230Z,932.00
2018-01-12T09:49:32.287Z,880.00
2018-01-12T09:50:32.296Z,828.00
2018-01-12T09:51:32.326Z,844.00
2018-01-12T09:52:32.698Z,868.00
2018-01-12T09:53:32.387Z,888.00
2018-01-12T09:54:32.406Z,876.00
2018-01-12T09:55:32.443Z,864.00
2018-01-12T09:56:32.473Z,860.00
2018-01-12T09:57:32.529Z,844.00
2018-01-12T09:58:32.531Z,832.00
2018-01-12T09:59:32.916Z,824.00
2018-01-12T10:00:32.647Z,796.00
2018-01-12T10:01:32.625Z,780.00
2018-01-12T10:05:33.250Z,828.00
2018-01-12T10:06:32.782Z,852.00
2018-01-12T10:07:32.812Z,896.00
2018-01-12T10:08:33.048Z,924.00
2018-01-12T10:09:32.868Z,896.00
2018-01-12T10:10:32.918Z,852.00
2018-01-12T10:11:32.963Z,812.00
2018-01-12T10:12:33.313Z,808.00
2018-01-12T10:13:32.997Z,812.00
2018-01-12T10:14:33.397Z,852.00
2018-01-12T10:17:33.163Z,792.00
2018-01-12T10:18:33.144Z,784.00
2018-01-12T10:19:33.532Z,772.00
2018-01-12T10:20:33.206Z,772.00
2018-01-12T10:22:33.299Z,820.00
2018-01-12T10:23:33.319Z,832.00
2018-01-12T10:24:33.326Z,820.00
2018-01-12T10:25:33.361Z,800.00
2018-01-12T10:26:33.744Z,832.00
2018-01-12T10:27:33.417Z,896.00
2018-01-12T10:28:33.453Z,888.00
2018-01-12T10:29:33.489Z,864.00
2018-01-12T10:30:33.526Z,864.00
2018-01-12T10:31:33.554Z,876.00
2018-01-12T10:32:33.589Z,844.00
2018-01-12T10:33:34.162Z,856.00
2018-01-12T10:34:33.843Z,876.00
2018-01-12T10:35:33.669Z,892.00
2018-01-12T10:37:33.737Z,956.00
2018-01-12T10:38:33.759Z,956.00
2018-01-12T10:39:34.142Z,916.00
2018-01-12T10:41:34.470Z,900.00
2018-01-12T10:42:34.078Z,920.00
2018-01-12T10:43:33.914Z,928.00
2018-01-12T10:44:33.941Z,940.00
2018-01-12T10:45:34.524Z,964.00
2018-01-12T10:46:34.008Z,992.00
2018-01-12T10:48:34.061Z,964.00
2018-01-12T10:49:34.090Z,932.00
2018-01-12T10:50:34.125Z,928.00
2018-01-12T10:51:34.511Z,964.00
2018-01-12T10:52:34.185Z,1000.00
2018-01-12T10:53:34.216Z,1008.00
2018-01-12T10:54:34.271Z,964.00
2018-01-12T10:55:34.295Z,928.00
2018-01-12T10:56:34.312Z,940.00
2018-01-12T10:57:34.404Z,956.00
2018-01-12T10:59:34.700Z,1040.00
2018-01-12T11:01:34.484Z,1160.00
2018-01-12T11:02:34.740Z,1184.00
2018-01-12T11:03:34.722Z,1200.00
2018-01-12T11:05:35.138Z,1224.00
2018-01-12T11:07:34.648Z,1256.00
2018-01-12T11:08:34.685Z,1264.00
2018-01-12T11:09:35.319Z,1272.00
2018-01-12T11:10:34.740Z,1240.00
2018-01-12T11:12:35.163Z,1260.00
2018-01-12T11:14:34.863Z,1072.00
2018-01-12T11:16:34.920Z,960.00
2018-01-12T11:18:54.538Z,956.00
2018-01-12T11:20:35.051Z,1016.00
2018-01-12T11:21:35.076Z,1064.00
2018-01-12T11:22:35.106Z,1112.00
2018-01-12T11:24:35.522Z,1136.00
2018-01-12T11:25:35.452Z,1112.00
2018-01-12T11:28:35.305Z,1116.00
2018-01-12T11:32:35.770Z,1228.00
2018-01-12T11:35:35.507Z,1348.00
2018-01-12T11:36:35.544Z,1316.00
2018-01-12T11:37:35.564Z,1232.00
2018-01-12T11:38:35.855Z,1160.00
2018-01-12T11:40:36.011Z,984.00
2018-01-12T11:41:35.690Z,932.00
2018-01-12T11:43:36.174Z,836.00
2018-01-12T11:45:35.812Z,884.00
2018-01-12T11:46:35.848Z,920.00
2018-01-12T11:49:42.549Z,984.00
2018-01-12T11:51:37.458Z,988.00
2018-01-12T11:53:36.263Z,960.00
2018-01-12T11:55:36.469Z,916.00
2018-01-12T11:57:36.229Z,884.00
2018-01-12T11:58:36.844Z,896.00
2018-01-12T12:03:02.364Z,856.00
2018-01-12T12:06:36.458Z,816.00
2018-01-12T12:11:37.565Z,836.00
2018-01-12T12:13:36.678Z,832.00
2018-01-12T12:15:36.936Z,852.00
2018-01-12T12:16:37.374Z,888.00
2018-01-12T12:17:36.853Z,908.00
2018-01-12T12:18:37.375Z,908.00
2018-01-12T12:20:36.886Z,932.00
2018-01-12T12:22:37.148Z,968.00
2018-01-12T12:23:36.999Z,956.00
2018-01-12T12:25:37.392Z,980.00
2018-01-12T12:28:37.146Z,960.00
2018-01-12T12:29:37.851Z,928.00
2018-01-12T12:35:37.700Z,868.00
2018-01-12T12:36:37.981Z,904.00
2018-01-12T12:37:37.616Z,944.00
2018-01-12T12:38:37.439Z,988.00
2018-01-12T12:40:38.157Z,1024.00
2018-01-12T12:45:38.006Z,996.00
2018-01-12T12:48:37.765Z,940.00
2018-01-12T12:49:37.777Z,936.00
2018-01-12T12:50:37.808Z,940.00
2018-01-12T12:52:38.218Z,980.00
2018-01-12T12:53:37.897Z,988.00
2018-01-12T12:54:37.938Z,996.00
2018-01-12T12:55:44.278Z,1016.00
2018-01-12T12:59:38.637Z,996.00
2018-01-12T13:00:38.113Z,976.00
2018-01-12T13:02:38.176Z,968.00
2018-01-12T13:03:38.405Z,976.00
2018-01-12T13:06:38.604Z,960.00
2018-01-12T13:08:38.416Z,984.00
2018-01-12T13:09:38.591Z,992.00
2018-01-12T13:10:38.466Z,992.00
2018-01-12T13:11:38.455Z,976.00
2018-01-12T13:12:38.534Z,960.00
2018-01-12T13:13:39.000Z,948.00
2018-01-12T13:14:38.543Z,944.00
2018-01-12T13:15:38.586Z,932.00
2018-01-12T13:16:38.608Z,904.00
2018-01-12T13:17:39.293Z,872.00
2018-01-12T13:18:38.887Z,836.00
2018-01-12T13:19:38.702Z,804.00
2018-01-12T13:21:39.721Z,776.00
2018-01-12T13:22:38.916Z,772.00
2018-01-12T13:23:38.850Z,760.00
2018-01-12T13:24:39.459Z,736.00
2018-01-12T13:25:38.887Z,716.00
2018-01-12T13:27:39.449Z,680.00
2018-01-12T13:29:39.209Z,644.00
2018-01-12T13:35:39.743Z,572.00
2018-01-12T13:36:39.418Z,568.00
2018-01-12T13:37:39.855Z,564.00
2018-01-12T13:38:39.286Z,568.00
2018-01-12T13:41:39.964Z,552.00
2018-01-12T13:42:39.656Z,536.00
2018-01-12T13:43:39.510Z,524.00
2018-01-12T13:44:39.465Z,516.00
2018-01-12T13:51:40.065Z,524.00
2018-01-12T13:53:39.962Z,520.00
2018-01-12T13:55:39.802Z,528.00
2018-01-12T13:56:39.906Z,520.00
2018-01-12T13:59:40.439Z,488.00
2018-01-12T14:01:46.255Z,480.00
2018-01-12T14:05:40.460Z,456.00
2018-01-12T14:06:40.189Z,448.00
2018-01-12T14:08:40.479Z,440.00
2018-01-12T14:09:40.281Z,436.00
2018-01-12T14:10:40.266Z,428.00
2018-01-12T14:11:40.294Z,424.00
2018-01-12T14:12:40.635Z,416.00
2018-01-12T14:14:40.633Z,424.00
2018-01-12T14:16:40.453Z,436.00
2018-01-12T14:17:40.535Z,444.00
2018-01-12T14:20:40.987Z,484.00
2018-01-12T14:21:40.614Z,496.00
2018-01-12T14:22:40.682Z,508.00
2018-01-12T14:23:40.927Z,508.00
2018-01-12T14:25:40.726Z,480.00
2018-01-12T14:26:40.802Z,460.00
2018-01-12T14:27:41.140Z,444.00
2018-01-12T14:28:40.877Z,436.00
2018-01-12T14:32:40.998Z,432.00
2018-01-12T14:33:41.602Z,436.00
2018-01-12T14:36:41.608Z,448.00
2018-01-12T14:37:41.090Z,452.00
2018-01-12T14:38:41.123Z,452.00
2018-01-12T14:39:41.150Z,448.00
2018-01-12T14:47:44.808Z,400.00
2018-01-12T14:49:41.736Z,384.00
2018-01-12T14:53:42.136Z,332.00
2018-01-12T14:56:41.723Z,288.00
2018-01-12T14:59:42.167Z,268.00
2018-01-12T15:01:41.870Z,264.00
2018-01-12T15:02:41.873Z,264.00
2018-01-12T15:04:41.966Z,260.00
2018-01-12T15:05:41.951Z,256.00
2018-01-12T15:10:42.656Z,216.00
2018-01-12T15:11:48.450Z,208.00
2018-01-12T15:12:43.640Z,200.00
2018-01-12T15:13:43.612Z,188.00
2018-01-12T15:19:43.352Z,140.00
2018-01-12T15:20:43.057Z,136.00
2018-01-12T15:26:43.708Z,120.00
2018-01-12T15:28:42.677Z,112.00
2018-01-12T15:31:43.082Z,88.00
2018-01-12T15:34:43.187Z,80.00
2018-01-12T15:35:42.873Z,76.00
2018-01-12T15:36:45.985Z,72.00
2018-01-12T15:37:43.052Z,68.00
2018-01-12T15:38:43.257Z,64.00
2018-01-12T15:42:44.921Z,52.00
2018-01-12T15:50:43.742Z,32.00
2018-01-12T15:53:43.412Z,24.00
2018-01-12T15:56:46.889Z,20.00
2018-01-12T15:59:45.066Z,16.00